createdAt,value
2023-01-06T00:00:28.707Z,103.63
2023-01-06T00:03:17.803Z,105.35
2023-01-06T00:06:04.505Z,105.22
2023-01-06T00:08:53.565Z,106.40
2023-01-06T00:11:42.575Z,109.53
2023-01-06T00:14:31.523Z,108.03
2023-01-06T00:17:20.658Z,103.90
2023-01-06T00:20:03.015Z,105.82
2023-01-06T00:22:53.666Z,110.85
2023-01-06T00:25:41.852Z,106.85
2023-01-06T00:28:24.527Z,104.15
2023-01-06T00:31:19.333Z,102.78
2023-01-06T00:34:04.527Z,107.82
2023-01-06T00:37:02.441Z,106.30
2023-01-06T00:39:51.604Z,107.38
2023-01-06T00:42:33.934Z,106.57
2023-01-06T00:45:22.551Z,111.00
2023-01-06T00:48:04.852Z,101.22
2023-01-06T00:50:53.520Z,107.57
2023-01-06T00:53:35.880Z,108.25
2023-01-06T00:56:24.927Z,106.32
2023-01-06T00:59:06.804Z,109.95
2023-01-06T01:01:56.669Z,105.97
2023-01-06T01:04:38.870Z,104.82
2023-01-06T01:07:27.521Z,108.05
2023-01-06T01:10:09.825Z,104.72
2023-01-06T01:13:01.577Z,103.95
2023-01-06T01:15:43.828Z,102.90
2023-01-06T01:18:33.525Z,104.63
2023-01-06T01:21:15.856Z,104.68
2023-01-06T01:24:04.495Z,102.30
2023-01-06T01:26:47.844Z,102.35
2023-01-06T01:29:36.548Z,105.03
2023-01-06T01:32:19.199Z,106.70
2023-01-06T01:35:08.594Z,101.05
2023-01-06T01:37:50.844Z,107.50
2023-01-06T01:40:39.569Z,105.47
2023-01-06T01:43:22.840Z,109.45
2023-01-06T01:46:11.569Z,110.78
2023-01-06T01:49:00.518Z,108.63
2023-01-06T01:51:47.063Z,104.43
2023-01-06T01:54:42.593Z,109.45
2023-01-06T01:57:33.974Z,110.65
2023-01-06T02:00:23.357Z,110.38
2023-01-06T02:03:13.887Z,115.70
2023-01-06T02:06:03.476Z,120.47
2023-01-06T02:09:07.822Z,116.43
2023-01-06T02:11:51.417Z,133.27
2023-01-06T02:14:40.867Z,137.93
2023-01-06T02:17:43.560Z,133.52
2023-01-06T02:20:43.874Z,129.63
2023-01-06T02:23:31.528Z,126.75
2023-01-06T02:26:30.350Z,130.52
2023-01-06T02:29:44.824Z,127.40
2023-01-06T02:32:29.571Z,134.73
2023-01-06T02:35:43.544Z,135.80
2023-01-06T02:41:26.458Z,134.45
2023-01-06T02:44:23.888Z,144.02
2023-01-06T02:47:25.569Z,144.15
2023-01-06T02:50:23.803Z,142.75
2023-01-06T02:53:19.518Z,152.98
2023-01-06T02:56:04.865Z,147.98
2023-01-06T02:59:19.513Z,147.85
2023-01-06T03:02:04.003Z,142.65
2023-01-06T03:04:58.443Z,145.50
2023-01-06T03:07:41.911Z,142.80
2023-01-06T03:10:33.344Z,146.25
2023-01-06T03:13:40.799Z,143.52
2023-01-06T03:16:29.414Z,142.60
2023-01-06T03:19:11.764Z,143.25
2023-01-06T03:22:03.525Z,138.75
2023-01-06T03:24:47.282Z,139.13
2023-01-06T03:27:38.453Z,133.43
2023-01-06T03:30:21.720Z,124.40
2023-01-06T03:33:19.500Z,121.80
2023-01-06T03:36:32.527Z,118.60
2023-01-06T03:39:30.770Z,113.70
2023-01-06T03:42:51.439Z,117.50
2023-01-06T03:46:16.473Z,111.97
2023-01-06T03:49:10.447Z,116.30
2023-01-06T03:52:16.515Z,122.47
2023-01-06T03:55:16.821Z,119.20
2023-01-06T03:58:08.364Z,112.45
2023-01-06T04:00:57.544Z,111.25
2023-01-06T04:03:40.843Z,99.88
2023-01-06T04:06:29.444Z,106.20
2023-01-06T04:09:19.780Z,100.60
2023-01-06T04:12:20.575Z,97.30
2023-01-06T04:15:09.405Z,95.43
2023-01-06T04:17:55.489Z,95.28
2023-01-06T04:20:47.440Z,92.10
2023-01-06T04:23:35.804Z,88.13
2023-01-06T04:26:24.457Z,95.38
2023-01-06T04:29:07.817Z,87.53
2023-01-06T04:31:57.480Z,90.78
2023-01-06T04:34:39.834Z,89.97
2023-01-06T04:37:37.414Z,92.47
2023-01-06T04:40:26.386Z,91.75
2023-01-06T04:43:08.888Z,87.78
2023-01-06T04:45:57.583Z,92.45
2023-01-06T04:48:39.860Z,86.47
2023-01-06T04:51:28.488Z,86.22
2023-01-06T04:54:10.711Z,85.15
2023-01-06T04:56:59.477Z,85.30
2023-01-06T04:59:41.806Z,86.65
2023-01-06T05:02:30.585Z,86.50
2023-01-06T05:05:12.776Z,85.25
2023-01-06T05:08:04.715Z,85.38
2023-01-06T05:10:53.398Z,84.30
2023-01-06T05:13:43.749Z,90.13
2023-01-06T05:16:37.573Z,95.00
2023-01-06T05:19:19.663Z,89.25
2023-01-06T05:22:08.512Z,91.45
2023-01-06T05:24:57.411Z,90.25
2023-01-06T05:27:39.778Z,93.00
2023-01-06T05:30:28.520Z,95.15
2023-01-06T05:33:10.859Z,95.72
2023-01-06T05:36:09.478Z,91.43
2023-01-06T05:39:09.367Z,88.40
2023-01-06T05:41:58.406Z,88.38
2023-01-06T05:44:40.928Z,86.32
2023-01-06T05:47:29.519Z,84.07
2023-01-06T05:50:12.749Z,82.72
2023-01-06T05:53:01.491Z,85.90
2023-01-06T05:55:50.433Z,84.30
2023-01-06T05:58:41.598Z,84.65
2023-01-06T06:01:29.805Z,84.47
2023-01-06T06:04:21.377Z,79.88
2023-01-06T06:07:03.879Z,84.90
2023-01-06T06:09:52.355Z,78.45
2023-01-06T06:12:34.893Z,79.28
2023-01-06T06:15:23.524Z,75.40
2023-01-06T06:18:05.904Z,79.28
2023-01-06T06:20:54.541Z,73.32
2023-01-06T06:23:37.796Z,78.95
2023-01-06T06:26:26.561Z,80.75
2023-01-06T06:29:08.816Z,79.65
2023-01-06T06:31:57.509Z,78.85
2023-01-06T06:34:39.835Z,76.70
2023-01-06T06:37:28.502Z,76.30
2023-01-06T06:40:10.689Z,78.53
2023-01-06T06:43:00.536Z,74.68
2023-01-06T06:45:42.733Z,76.43
2023-01-06T06:48:31.563Z,74.65
2023-01-06T06:51:18.002Z,76.68
2023-01-06T06:54:06.455Z,77.55
2023-01-06T06:56:48.692Z,77.22
2023-01-06T06:59:37.560Z,74.85
2023-01-06T07:02:19.962Z,76.68
2023-01-06T07:05:08.510Z,77.47
2023-01-06T07:07:51.771Z,76.18
2023-01-06T07:10:41.601Z,78.35
2023-01-06T07:13:23.791Z,74.90
2023-01-06T07:16:13.663Z,78.15
2023-01-06T07:18:55.684Z,80.30
2023-01-06T07:21:46.459Z,79.20
2023-01-06T07:24:28.647Z,81.13
2023-01-06T07:27:17.371Z,79.25
2023-01-06T07:30:06.412Z,77.18
2023-01-06T07:32:48.727Z,86.18
2023-01-06T07:35:37.458Z,84.97
2023-01-06T07:38:32.341Z,85.20
2023-01-06T07:41:21.488Z,89.45
2023-01-06T07:44:17.185Z,89.85
2023-01-06T07:46:59.663Z,91.82
2023-01-06T07:49:48.450Z,85.90
2023-01-06T07:52:36.745Z,83.78
2023-01-06T07:55:19.498Z,88.70
2023-01-06T07:58:13.351Z,85.80
2023-01-06T08:01:02.513Z,84.70
2023-01-06T08:03:44.649Z,87.03
2023-01-06T08:06:33.393Z,90.72
2023-01-06T08:09:21.739Z,91.13
2023-01-06T08:12:04.443Z,94.05
2023-01-06T08:14:52.788Z,89.65
2023-01-06T08:17:34.767Z,91.43
2023-01-06T08:20:22.837Z,92.50
2023-01-06T08:23:06.542Z,86.93
2023-01-06T08:25:54.753Z,93.05
2023-01-06T08:28:37.425Z,95.15
2023-01-06T08:31:28.374Z,92.18
2023-01-06T08:34:12.579Z,86.63
2023-01-06T08:37:01.491Z,86.13
2023-01-06T08:39:57.275Z,86.72
2023-01-06T08:42:46.433Z,92.40
2023-01-06T08:45:28.848Z,96.47
2023-01-06T08:48:17.307Z,95.95
2023-01-06T08:51:09.455Z,84.75
2023-01-06T08:53:58.786Z,86.65
2023-01-06T08:56:42.415Z,85.65
2023-01-06T08:59:30.772Z,87.40
2023-01-06T09:02:12.475Z,91.65
2023-01-06T09:05:01.608Z,87.28
2023-01-06T09:07:50.433Z,87.80
2023-01-06T09:10:32.624Z,90.97
2023-01-06T09:13:21.343Z,89.18
2023-01-06T09:16:13.723Z,89.47
2023-01-06T09:18:57.439Z,92.07
2023-01-06T09:21:47.167Z,91.53
2023-01-06T09:24:29.333Z,94.38
2023-01-06T09:27:17.722Z,94.25
2023-01-06T09:30:00.476Z,95.18
2023-01-06T09:32:42.653Z,100.20
2023-01-06T09:35:31.526Z,97.43
2023-01-06T09:38:27.293Z,98.32
2023-01-06T09:41:45.416Z,102.25
2023-01-06T09:44:40.781Z,101.60
2023-01-06T09:47:37.382Z,106.95
2023-01-06T09:50:52.411Z,105.43
2023-01-06T09:53:47.255Z,114.28
2023-01-06T09:56:39.364Z,113.45
2023-01-06T09:59:35.746Z,115.45
2023-01-06T10:02:35.484Z,114.70
2023-01-06T10:05:27.549Z,117.50
2023-01-06T10:08:22.417Z,123.00
2023-01-06T10:11:17.086Z,115.82
2023-01-06T10:14:09.454Z,111.95
2023-01-06T10:17:03.006Z,113.13
2023-01-06T10:20:09.459Z,111.22
2023-01-06T10:23:04.723Z,111.72
2023-01-06T10:25:54.379Z,110.55
2023-01-06T10:28:46.389Z,112.20
2023-01-06T10:31:36.841Z,113.18
2023-01-06T10:34:34.354Z,112.78
2023-01-06T10:37:44.429Z,113.93
2023-01-06T10:40:44.344Z,120.00
2023-01-06T10:43:32.868Z,112.25
2023-01-06T10:46:15.303Z,107.57
2023-01-06T10:49:03.674Z,111.30
2023-01-06T10:51:53.428Z,109.32
2023-01-06T10:54:43.591Z,104.63
2023-01-06T10:57:33.325Z,103.20
2023-01-06T11:00:26.377Z,107.05
2023-01-06T11:03:32.373Z,107.63
2023-01-06T11:06:24.407Z,102.60
2023-01-06T11:09:06.704Z,102.57
2023-01-06T11:12:00.359Z,104.97
2023-01-06T11:14:43.732Z,103.60
2023-01-06T11:17:33.319Z,105.47
2023-01-06T11:20:24.419Z,105.07
2023-01-06T11:23:30.817Z,103.63
2023-01-06T11:26:26.299Z,104.07
2023-01-06T11:29:53.293Z,105.68
2023-01-06T11:32:36.471Z,100.22
2023-01-06T11:35:35.429Z,99.55
2023-01-06T11:38:26.407Z,97.95
2023-01-06T11:41:17.686Z,99.68
2023-01-06T11:44:29.428Z,99.50
2023-01-06T11:47:22.466Z,101.80
2023-01-06T11:50:05.380Z,104.07
2023-01-06T11:52:54.375Z,92.07
2023-01-06T11:55:43.314Z,72.97
2023-01-06T11:58:47.387Z,71.60
2023-01-06T12:01:34.339Z,68.47
2023-01-06T12:05:00.244Z,71.38
2023-01-06T12:07:58.260Z,70.50
2023-01-06T12:10:44.403Z,68.63
2023-01-06T12:13:28.554Z,72.18
2023-01-06T12:16:30.610Z,67.97
2023-01-06T12:19:28.734Z,68.10
2023-01-06T12:22:11.398Z,68.47
2023-01-06T12:25:03.276Z,71.57
2023-01-06T12:27:58.349Z,74.70
2023-01-06T12:30:59.024Z,75.63
2023-01-06T12:34:02.855Z,74.13
2023-01-06T12:36:50.655Z,73.47
2023-01-06T12:39:53.475Z,73.13
2023-01-06T12:42:44.787Z,73.70
2023-01-06T12:45:56.594Z,74.95
2023-01-06T12:48:45.612Z,74.18
2023-01-06T12:51:52.383Z,74.43
2023-01-06T12:54:36.786Z,72.25
2023-01-06T12:57:47.295Z,73.32
2023-01-06T13:00:45.473Z,73.72
2023-01-06T13:04:11.526Z,76.88
2023-01-06T13:07:11.820Z,74.68
2023-01-06T13:10:33.362Z,76.07
2023-01-06T13:13:31.218Z,75.20
2023-01-06T13:16:40.364Z,77.93
2023-01-06T13:19:56.336Z,73.65
2023-01-06T13:22:56.529Z,69.85
2023-01-06T13:26:19.287Z,73.32
2023-01-06T13:29:08.369Z,72.43
2023-01-06T13:32:27.730Z,69.88
2023-01-06T13:35:35.285Z,69.63
2023-01-06T13:38:39.189Z,72.45
2023-01-06T13:44:17.782Z,71.72
2023-01-06T13:47:27.352Z,74.18
2023-01-06T13:50:09.756Z,72.85
2023-01-06T13:52:59.225Z,76.35
2023-01-06T13:55:51.372Z,73.50
2023-01-06T13:58:33.563Z,74.80
2023-01-06T14:01:36.446Z,72.05
2023-01-06T14:04:43.916Z,76.43
2023-01-06T14:07:51.409Z,76.57
2023-01-06T14:10:39.628Z,76.60
2023-01-06T14:13:27.413Z,76.30
2023-01-06T14:16:20.316Z,76.90
2023-01-06T14:19:33.273Z,79.68
2023-01-06T14:22:28.524Z,80.57
2023-01-06T14:25:16.370Z,77.13
2023-01-06T14:28:01.347Z,81.75
2023-01-06T14:30:51.369Z,83.97
2023-01-06T14:33:50.658Z,84.60
2023-01-06T14:36:34.402Z,84.25
2023-01-06T14:39:37.235Z,85.05
2023-01-06T14:42:42.282Z,84.75
2023-01-06T14:45:33.611Z,83.30
2023-01-06T14:48:26.298Z,83.65
2023-01-06T14:51:08.682Z,83.07
2023-01-06T14:54:12.232Z,77.55
2023-01-06T14:57:07.265Z,78.38
2023-01-06T15:00:37.411Z,78.88
2023-01-06T15:03:30.713Z,75.00
2023-01-06T15:06:30.285Z,76.07
2023-01-06T15:09:21.368Z,73.15
2023-01-06T15:12:10.314Z,74.88
2023-01-06T15:14:52.624Z,73.78
2023-01-06T15:17:41.307Z,75.18
2023-01-06T15:20:23.711Z,73.90
2023-01-06T15:23:13.358Z,76.68
2023-01-06T15:26:10.252Z,75.57
2023-01-06T15:29:11.352Z,75.63
2023-01-06T15:31:57.297Z,75.35
2023-01-06T15:34:50.322Z,76.05
2023-01-06T15:37:42.399Z,75.65
2023-01-06T15:40:38.400Z,73.45
2023-01-06T15:43:31.633Z,71.75
2023-01-06T15:46:21.046Z,75.97
2023-01-06T15:49:12.333Z,71.90
2023-01-06T15:52:08.882Z,72.10
2023-01-06T15:54:58.686Z,72.45
2023-01-06T15:57:53.633Z,71.70
2023-01-06T16:01:04.272Z,70.00
2023-01-06T16:03:54.615Z,75.72
2023-01-06T16:06:48.535Z,72.43
2023-01-06T16:09:36.956Z,72.88
2023-01-06T16:12:30.655Z,71.25
2023-01-06T16:15:42.848Z,72.13
2023-01-06T16:18:45.567Z,70.63
2023-01-06T16:21:33.639Z,71.55
2023-01-06T16:24:38.669Z,74.03
2023-01-06T16:27:21.317Z,70.65
2023-01-06T16:30:21.288Z,72.45
2023-01-06T16:33:06.053Z,69.60
2023-01-06T16:36:00.370Z,66.75
2023-01-06T16:38:46.956Z,69.07
2023-01-06T16:41:36.458Z,71.32
2023-01-06T16:44:19.004Z,70.47
2023-01-06T16:47:10.209Z,72.95
2023-01-06T16:49:52.927Z,73.95
2023-01-06T16:52:42.503Z,72.95
2023-01-06T16:55:27.775Z,73.13
2023-01-06T16:58:37.290Z,71.13
2023-01-06T17:01:29.519Z,66.70
2023-01-06T17:04:20.697Z,72.63
2023-01-06T17:07:09.467Z,66.53
2023-01-06T17:09:51.906Z,67.75
2023-01-06T17:12:58.570Z,66.75
2023-01-06T17:15:47.747Z,68.32
2023-01-06T17:18:38.349Z,65.72
2023-01-06T17:21:43.207Z,68.68
2023-01-06T17:24:31.381Z,68.63
2023-01-06T17:27:31.403Z,68.13
2023-01-06T17:30:32.363Z,67.22
2023-01-06T17:33:22.881Z,68.25
2023-01-06T17:36:07.274Z,65.50
2023-01-06T17:39:04.535Z,68.55
2023-01-06T17:41:54.248Z,69.15
2023-01-06T17:44:49.918Z,73.18
2023-01-06T17:47:51.473Z,74.55
2023-01-06T17:50:41.700Z,75.15
2023-01-06T17:54:02.630Z,74.55
2023-01-06T17:56:51.685Z,75.13
2023-01-06T17:59:40.506Z,71.88
2023-01-06T18:02:38.563Z,73.95
2023-01-06T18:05:33.705Z,74.18
2023-01-06T18:08:15.880Z,73.45
2023-01-06T18:11:05.377Z,73.10
2023-01-06T18:13:58.530Z,69.85
2023-01-06T18:16:49.793Z,74.97
2023-01-06T18:19:43.955Z,74.22
2023-01-06T18:22:31.876Z,74.68
2023-01-06T18:25:32.751Z,71.55
2023-01-06T18:28:27.002Z,72.93
2023-01-06T18:31:24.849Z,76.07
2023-01-06T18:34:31.585Z,77.72
2023-01-06T18:37:22.194Z,75.65
2023-01-06T18:40:16.715Z,75.82
2023-01-06T18:43:01.176Z,81.15
2023-01-06T18:45:50.385Z,81.65
2023-01-06T18:48:39.453Z,86.57
2023-01-06T18:51:31.721Z,84.97
2023-01-06T18:54:26.248Z,87.40
2023-01-06T18:57:32.391Z,89.28
2023-01-06T19:00:38.968Z,88.65
2023-01-06T19:03:44.239Z,89.72
2023-01-06T19:06:36.610Z,93.10
2023-01-06T19:09:31.731Z,91.55
2023-01-06T19:12:19.274Z,88.07
2023-01-06T19:15:27.639Z,92.95
2023-01-06T19:18:12.272Z,91.10
2023-01-06T19:21:01.672Z,90.50
2023-01-06T19:23:43.724Z,87.55
2023-01-06T19:26:53.825Z,92.70
2023-01-06T19:29:41.170Z,89.95
2023-01-06T19:32:32.453Z,92.63
2023-01-06T19:35:28.006Z,94.10
2023-01-06T19:38:43.554Z,92.57
2023-01-06T19:41:38.806Z,88.82
2023-01-06T19:44:22.600Z,91.20
2023-01-06T19:47:18.605Z,92.57
2023-01-06T19:50:11.415Z,90.93
2023-01-06T19:52:59.119Z,90.57
2023-01-06T19:55:49.259Z,92.13
2023-01-06T19:58:36.553Z,92.55
2023-01-06T20:01:28.487Z,92.03
2023-01-06T20:04:29.707Z,89.43
2023-01-06T20:07:18.284Z,89.90
2023-01-06T20:10:06.701Z,94.18
2023-01-06T20:12:49.305Z,94.65
2023-01-06T20:15:37.763Z,91.30
2023-01-06T20:18:20.369Z,88.63
2023-01-06T20:21:09.549Z,91.40
2023-01-06T20:23:52.222Z,90.63
2023-01-06T20:26:35.627Z,89.00
2023-01-06T20:29:24.306Z,89.13
2023-01-06T20:32:13.562Z,89.60
2023-01-06T20:34:55.294Z,87.07
2023-01-06T20:37:37.599Z,87.85
2023-01-06T20:40:27.243Z,90.28
2023-01-06T20:43:09.581Z,86.93
2023-01-06T20:45:58.309Z,85.32
2023-01-06T20:48:47.263Z,86.22
2023-01-06T20:51:29.625Z,84.45
2023-01-06T20:54:18.168Z,81.53
2023-01-06T20:57:00.582Z,86.80
2023-01-06T20:59:49.311Z,82.47
2023-01-06T21:02:31.662Z,90.40
2023-01-06T21:05:20.196Z,92.22
2023-01-06T21:08:09.193Z,93.03
2023-01-06T21:10:57.505Z,92.10
2023-01-06T21:13:39.266Z,85.68
2023-01-06T21:16:27.657Z,84.63
2023-01-06T21:19:10.298Z,85.15
2023-01-06T21:21:59.201Z,86.65
2023-01-06T21:24:41.589Z,83.72
2023-01-06T21:27:30.289Z,87.07
2023-01-06T21:30:13.560Z,84.95
2023-01-06T21:33:02.358Z,87.70
2023-01-06T21:35:44.585Z,83.72
2023-01-06T21:38:33.286Z,80.00
2023-01-06T21:41:39.737Z,86.10
2023-01-06T21:44:22.284Z,83.07
2023-01-06T21:47:04.995Z,83.47
2023-01-06T21:49:54.311Z,85.60
2023-01-06T21:52:44.479Z,81.38
2023-01-06T21:55:27.335Z,83.20
2023-01-06T21:58:16.227Z,88.53
2023-01-06T22:01:05.402Z,91.20
2023-01-06T22:03:47.480Z,103.70
2023-01-06T22:06:37.295Z,103.20
2023-01-06T22:09:29.549Z,108.63
2023-01-06T22:12:14.137Z,115.45
2023-01-06T22:15:03.579Z,119.38
2023-01-06T22:17:46.316Z,121.55
2023-01-06T22:20:32.217Z,120.65
2023-01-06T22:23:26.204Z,117.43
2023-01-06T22:26:08.628Z,118.65
2023-01-06T22:28:57.370Z,122.05
2023-01-06T22:31:41.696Z,119.95
2023-01-06T22:34:30.199Z,118.82
2023-01-06T22:37:19.187Z,116.78
2023-01-06T22:40:14.124Z,119.20
2023-01-06T22:43:04.246Z,111.85
2023-01-06T22:45:46.510Z,112.30
2023-01-06T22:48:35.365Z,110.13
2023-01-06T22:51:24.361Z,110.75
2023-01-06T22:54:06.618Z,109.13
2023-01-06T22:56:55.302Z,107.10
2023-01-06T22:59:37.483Z,106.30
2023-01-06T23:02:26.471Z,108.30
2023-01-06T23:05:15.581Z,105.90
2023-01-06T23:07:57.271Z,104.45
2023-01-06T23:10:46.231Z,107.65
2023-01-06T23:13:28.565Z,105.47
2023-01-06T23:16:19.357Z,107.97
2023-01-06T23:19:08.244Z,109.93
2023-01-06T23:21:56.541Z,114.05
2023-01-06T23:24:38.130Z,115.50
2023-01-06T23:27:26.613Z,120.80
2023-01-06T23:30:09.368Z,120.25
2023-01-06T23:32:57.577Z,116.75
2023-01-06T23:35:40.267Z,115.05
2023-01-06T23:38:28.555Z,111.63
2023-01-06T23:41:28.292Z,112.88
2023-01-06T23:44:22.526Z,112.55
2023-01-06T23:47:04.161Z,109.65
2023-01-06T23:49:52.621Z,113.70
2023-01-06T23:52:35.179Z,116.47
2023-01-06T23:58:06.193Z,113.63
